sensor_id;sensor_type;location;lat;lon;timestamp;P1;durP1;ratioP1;P2;durP2;ratioP2
5127;SDS011;2582;48.770;9.190;2022-12-19T00:01:57;42.73;;;28.10;;
5127;SDS011;2582;48.770;9.190;2022-12-19T00:04:23;43.43;;;29.43;;
5127;SDS011;2582;48.770;9.190;2022-12-19T00:06:49;47.33;;;29.13;;
5127;SDS011;2582;48.770;9.190;2022-12-19T00:09:14;42.60;;;26.43;;
5127;SDS011;2582;48.770;9.190;2022-12-19T00:11:40;46.20;;;31.63;;
5127;SDS011;2582;48.770;9.190;2022-12-19T00:14:05;41.60;;;28.70;;
5127;SDS011;2582;48.770;9.190;2022-12-19T00:16:33;43.70;;;27.93;;
5127;SDS011;2582;48.770;9.190;2022-12-19T00:18:59;50.37;;;32.40;;
5127;SDS011;2582;48.770;9.190;2022-12-19T00:21:26;47.30;;;30.50;;
5127;SDS011;2582;48.770;9.190;2022-12-19T00:23:53;48.27;;;31.10;;
5127;SDS011;2582;48.770;9.190;2022-12-19T00:26:21;45.17;;;31.70;;
5127;SDS011;2582;48.770;9.190;2022-12-19T00:28:48;49.53;;;32.27;;
5127;SDS011;2582;48.770;9.190;2022-12-19T00:31:15;46.17;;;31.30;;
5127;SDS011;2582;48.770;9.190;2022-12-19T00:33:42;51.17;;;30.33;;
5127;SDS011;2582;48.770;9.190;2022-12-19T00:36:09;45.53;;;31.57;;
5127;SDS011;2582;48.770;9.190;2022-12-19T00:38:46;49.30;;;32.60;;
5127;SDS011;2582;48.770;9.190;2022-12-19T00:41:13;47.63;;;32.33;;
5127;SDS011;2582;48.770;9.190;2022-12-19T00:43:41;35.20;;;26.83;;
5127;SDS011;2582;48.770;9.190;2022-12-19T00:46:09;45.27;;;29.47;;
5127;SDS011;2582;48.770;9.190;2022-12-19T00:48:35;47.43;;;29.63;;
5127;SDS011;2582;48.770;9.190;2022-12-19T00:51:02;45.90;;;30.40;;
5127;SDS011;2582;48.770;9.190;2022-12-19T00:53:30;38.60;;;27.73;;
5127;SDS011;2582;48.770;9.190;2022-12-19T00:55:55;51.23;;;32.63;;
5127;SDS011;2582;48.770;9.190;2022-12-19T00:58:24;46.33;;;29.70;;
5127;SDS011;2582;48.770;9.190;2022-12-19T01:00:51;46.33;;;28.77;;
5127;SDS011;2582;48.770;9.190;2022-12-19T01:03:16;43.03;;;29.97;;
5127;SDS011;2582;48.770;9.190;2022-12-19T01:05:42;48.13;;;29.77;;
5127;SDS011;2582;48.770;9.190;2022-12-19T01:08:07;45.70;;;29.87;;
5127;SDS011;2582;48.770;9.190;2022-12-19T01:10:33;49.20;;;31.63;;
5127;SDS011;2582;48.770;9.190;2022-12-19T01:12:58;42.73;;;29.97;;
5127;SDS011;2582;48.770;9.190;2022-12-19T01:15:24;45.33;;;29.20;;
5127;SDS011;2582;48.770;9.190;2022-12-19T01:17:49;42.60;;;27.97;;
5127;SDS011;2582;48.770;9.190;2022-12-19T01:20:17;44.30;;;29.90;;
5127;SDS011;2582;48.770;9.190;2022-12-19T01:22:44;40.80;;;29.13;;
5127;SDS011;2582;48.770;9.190;2022-12-19T01:25:10;45.70;;;29.67;;
5127;SDS011;2582;48.770;9.190;2022-12-19T01:27:36;48.53;;;30.40;;
5127;SDS011;2582;48.770;9.190;2022-12-19T01:30:02;44.80;;;30.90;;
5127;SDS011;2582;48.770;9.190;2022-12-19T01:32:29;45.40;;;29.03;;
5127;SDS011;2582;48.770;9.190;2022-12-19T01:34:55;42.63;;;29.60;;
5127;SDS011;2582;48.770;9.190;2022-12-19T01:37:21;44.97;;;30.77;;
5127;SDS011;2582;48.770;9.190;2022-12-19T01:39:47;43.83;;;30.10;;
5127;SDS011;2582;48.770;9.190;2022-12-19T01:42:16;42.73;;;29.30;;
5127;SDS011;2582;48.770;9.190;2022-12-19T01:50:18;40.33;;;28.17;;
5127;SDS011;2582;48.770;9.190;2022-12-19T01:52:47;43.47;;;28.83;;
5127;SDS011;2582;48.770;9.190;2022-12-19T01:55:13;47.00;;;29.90;;
5127;SDS011;2582;48.770;9.190;2022-12-19T01:57:39;40.13;;;27.17;;
5127;SDS011;2582;48.770;9.190;2022-12-19T02:00:06;43.43;;;28.87;;
5127;SDS011;2582;48.770;9.190;2022-12-19T02:02:42;48.20;;;32.93;;
5127;SDS011;2582;48.770;9.190;2022-12-19T02:05:12;41.57;;;29.00;;
5127;SDS011;2582;48.770;9.190;2022-12-19T02:07:38;48.80;;;31.03;;
5127;SDS011;2582;48.770;9.190;2022-12-19T02:10:06;40.67;;;27.20;;
5127;SDS011;2582;48.770;9.190;2022-12-19T02:12:33;41.17;;;28.17;;
5127;SDS011;2582;48.770;9.190;2022-12-19T02:15:02;45.60;;;30.37;;
5127;SDS011;2582;48.770;9.190;2022-12-19T02:17:44;46.30;;;30.27;;
5127;SDS011;2582;48.770;9.190;2022-12-19T02:23:17;41.47;;;27.77;;
5127;SDS011;2582;48.770;9.190;2022-12-19T02:31:31;39.33;;;27.70;;
5127;SDS011;2582;48.770;9.190;2022-12-19T02:34:15;38.13;;;26.10;;
5127;SDS011;2582;48.770;9.190;2022-12-19T02:36:56;39.17;;;25.67;;
5127;SDS011;2582;48.770;9.190;2022-12-19T02:42:08;41.17;;;26.37;;
5127;SDS011;2582;48.770;9.190;2022-12-19T02:44:49;46.87;;;29.97;;
5127;SDS011;2582;48.770;9.190;2022-12-19T02:47:18;40.87;;;27.40;;
5127;SDS011;2582;48.770;9.190;2022-12-19T02:49:45;39.00;;;27.03;;
5127;SDS011;2582;48.770;9.190;2022-12-19T02:52:12;42.23;;;29.40;;
5127;SDS011;2582;48.770;9.190;2022-12-19T02:55:00;44.03;;;29.47;;
5127;SDS011;2582;48.770;9.190;2022-12-19T02:57:37;46.47;;;30.13;;
5127;SDS011;2582;48.770;9.190;2022-12-19T03:13:52;40.00;;;29.27;;
5127;SDS011;2582;48.770;9.190;2022-12-19T03:16:01;41.37;;;29.87;;
5127;SDS011;2582;48.770;9.190;2022-12-19T03:18:29;40.13;;;28.30;;
5127;SDS011;2582;48.770;9.190;2022-12-19T03:23:47;41.33;;;29.03;;
5127;SDS011;2582;48.770;9.190;2022-12-19T03:26:18;46.10;;;30.77;;
5127;SDS011;2582;48.770;9.190;2022-12-19T03:31:16;40.93;;;29.10;;
5127;SDS011;2582;48.770;9.190;2022-12-19T03:33:45;40.17;;;29.00;;
5127;SDS011;2582;48.770;9.190;2022-12-19T03:36:14;41.30;;;27.30;;
5127;SDS011;2582;48.770;9.190;2022-12-19T03:38:45;41.20;;;29.90;;
5127;SDS011;2582;48.770;9.190;2022-12-19T03:41:12;38.30;;;27.93;;
5127;SDS011;2582;48.770;9.190;2022-12-19T03:43:40;43.90;;;30.00;;
5127;SDS011;2582;48.770;9.190;2022-12-19T03:48:50;39.80;;;27.50;;
5127;SDS011;2582;48.770;9.190;2022-12-19T03:54:02;42.00;;;28.00;;
5127;SDS011;2582;48.770;9.190;2022-12-19T03:56:44;40.70;;;28.83;;
5127;SDS011;2582;48.770;9.190;2022-12-19T04:02:00;39.63;;;28.30;;
5127;SDS011;2582;48.770;9.190;2022-12-19T04:04:27;38.93;;;27.17;;
5127;SDS011;2582;48.770;9.190;2022-12-19T04:06:56;38.13;;;27.50;;
5127;SDS011;2582;48.770;9.190;2022-12-19T04:09:22;39.40;;;28.47;;
5127;SDS011;2582;48.770;9.190;2022-12-19T04:11:52;39.50;;;28.33;;
5127;SDS011;2582;48.770;9.190;2022-12-19T04:14:24;35.37;;;26.43;;
5127;SDS011;2582;48.770;9.190;2022-12-19T04:16:55;37.23;;;27.33;;
5127;SDS011;2582;48.770;9.190;2022-12-19T04:19:30;39.40;;;28.50;;
5127;SDS011;2582;48.770;9.190;2022-12-19T04:22:16;38.90;;;27.20;;
5127;SDS011;2582;48.770;9.190;2022-12-19T04:25:05;38.67;;;25.53;;
5127;SDS011;2582;48.770;9.190;2022-12-19T04:27:34;43.90;;;29.13;;
5127;SDS011;2582;48.770;9.190;2022-12-19T04:30:04;38.60;;;27.00;;
5127;SDS011;2582;48.770;9.190;2022-12-19T04:32:31;35.73;;;26.13;;
5127;SDS011;2582;48.770;9.190;2022-12-19T04:34:59;36.70;;;25.27;;
5127;SDS011;2582;48.770;9.190;2022-12-19T04:37:25;36.20;;;25.30;;
5127;SDS011;2582;48.770;9.190;2022-12-19T04:39:50;42.33;;;28.43;;
5127;SDS011;2582;48.770;9.190;2022-12-19T04:42:17;41.77;;;27.97;;
5127;SDS011;2582;48.770;9.190;2022-12-19T04:44:42;38.93;;;26.53;;
5127;SDS011;2582;48.770;9.190;2022-12-19T04:47:08;39.53;;;27.73;;
5127;SDS011;2582;48.770;9.190;2022-12-19T04:49:33;40.67;;;27.60;;
5127;SDS011;2582;48.770;9.190;2022-12-19T04:51:59;47.00;;;30.73;;
5127;SDS011;2582;48.770;9.190;2022-12-19T04:54:24;43.10;;;28.83;;
5127;SDS011;2582;48.770;9.190;2022-12-19T04:56:51;41.43;;;27.57;;
5127;SDS011;2582;48.770;9.190;2022-12-19T04:59:17;37.83;;;26.07;;
5127;SDS011;2582;48.770;9.190;2022-12-19T05:01:43;43.43;;;28.73;;
5127;SDS011;2582;48.770;9.190;2022-12-19T05:04:08;33.97;;;24.97;;
5127;SDS011;2582;48.770;9.190;2022-12-19T05:06:34;39.60;;;27.73;;
5127;SDS011;2582;48.770;9.190;2022-12-19T05:09:00;41.40;;;26.20;;
5127;SDS011;2582;48.770;9.190;2022-12-19T05:11:25;41.10;;;27.77;;
5127;SDS011;2582;48.770;9.190;2022-12-19T05:13:51;38.60;;;27.50;;
5127;SDS011;2582;48.770;9.190;2022-12-19T05:16:16;41.10;;;28.50;;
5127;SDS011;2582;48.770;9.190;2022-12-19T05:18:42;38.33;;;26.27;;
5127;SDS011;2582;48.770;9.190;2022-12-19T05:21:08;35.43;;;25.20;;
5127;SDS011;2582;48.770;9.190;2022-12-19T05:23:34;33.70;;;24.90;;
5127;SDS011;2582;48.770;9.190;2022-12-19T05:26:02;35.70;;;25.17;;
5127;SDS011;2582;48.770;9.190;2022-12-19T05:28:29;38.47;;;25.17;;
5127;SDS011;2582;48.770;9.190;2022-12-19T05:31:06;40.73;;;27.07;;
5127;SDS011;2582;48.770;9.190;2022-12-19T05:33:36;31.07;;;23.50;;
5127;SDS011;2582;48.770;9.190;2022-12-19T05:36:03;34.33;;;25.90;;
5127;SDS011;2582;48.770;9.190;2022-12-19T05:38:29;29.40;;;23.50;;
5127;SDS011;2582;48.770;9.190;2022-12-19T05:40:55;33.60;;;23.30;;
5127;SDS011;2582;48.770;9.190;2022-12-19T05:43:23;34.50;;;24.30;;
5127;SDS011;2582;48.770;9.190;2022-12-19T05:45:49;33.73;;;23.23;;
5127;SDS011;2582;48.770;9.190;2022-12-19T05:48:14;33.20;;;23.10;;
5127;SDS011;2582;48.770;9.190;2022-12-19T05:50:40;29.30;;;23.43;;
5127;SDS011;2582;48.770;9.190;2022-12-19T05:53:10;37.97;;;25.53;;
5127;SDS011;2582;48.770;9.190;2022-12-19T05:55:36;30.77;;;22.40;;
5127;SDS011;2582;48.770;9.190;2022-12-19T05:58:01;32.90;;;22.20;;
5127;SDS011;2582;48.770;9.190;2022-12-19T06:00:27;37.93;;;24.30;;
5127;SDS011;2582;48.770;9.190;2022-12-19T06:02:52;29.60;;;21.53;;
5127;SDS011;2582;48.770;9.190;2022-12-19T06:05:18;40.03;;;24.70;;
5127;SDS011;2582;48.770;9.190;2022-12-19T06:07:44;31.53;;;21.53;;
5127;SDS011;2582;48.770;9.190;2022-12-19T06:10:10;34.53;;;23.50;;
5127;SDS011;2582;48.770;9.190;2022-12-19T06:12:36;35.63;;;23.23;;
5127;SDS011;2582;48.770;9.190;2022-12-19T06:15:01;37.00;;;23.50;;
5127;SDS011;2582;48.770;9.190;2022-12-19T06:17:27;34.97;;;23.57;;
5127;SDS011;2582;48.770;9.190;2022-12-19T06:19:53;32.50;;;21.67;;
5127;SDS011;2582;48.770;9.190;2022-12-19T06:22:18;32.47;;;23.10;;
5127;SDS011;2582;48.770;9.190;2022-12-19T06:24:44;28.87;;;21.77;;
5127;SDS011;2582;48.770;9.190;2022-12-19T06:27:09;33.20;;;25.60;;
5127;SDS011;2582;48.770;9.190;2022-12-19T06:29:35;36.30;;;23.37;;
5127;SDS011;2582;48.770;9.190;2022-12-19T06:32:00;31.27;;;22.23;;
5127;SDS011;2582;48.770;9.190;2022-12-19T06:34:26;30.00;;;21.93;;
5127;SDS011;2582;48.770;9.190;2022-12-19T06:36:51;33.47;;;23.40;;
5127;SDS011;2582;48.770;9.190;2022-12-19T06:39:17;39.13;;;28.43;;
5127;SDS011;2582;48.770;9.190;2022-12-19T06:41:42;35.30;;;23.23;;
5127;SDS011;2582;48.770;9.190;2022-12-19T06:44:27;36.27;;;25.47;;
5127;SDS011;2582;48.770;9.190;2022-12-19T06:46:52;35.83;;;25.10;;
5127;SDS011;2582;48.770;9.190;2022-12-19T06:49:18;34.10;;;22.63;;
5127;SDS011;2582;48.770;9.190;2022-12-19T06:51:44;38.67;;;27.83;;
5127;SDS011;2582;48.770;9.190;2022-12-19T06:54:10;37.90;;;27.77;;
5127;SDS011;2582;48.770;9.190;2022-12-19T06:56:37;38.77;;;25.97;;
5127;SDS011;2582;48.770;9.190;2022-12-19T06:59:04;33.90;;;24.23;;
5127;SDS011;2582;48.770;9.190;2022-12-19T07:01:37;34.87;;;24.20;;
5127;SDS011;2582;48.770;9.190;2022-12-19T07:04:31;38.00;;;25.80;;
5127;SDS011;2582;48.770;9.190;2022-12-19T07:07:03;32.97;;;23.87;;
5127;SDS011;2582;48.770;9.190;2022-12-19T07:09:30;33.93;;;22.60;;
5127;SDS011;2582;48.770;9.190;2022-12-19T07:11:57;28.00;;;20.10;;
5127;SDS011;2582;48.770;9.190;2022-12-19T07:14:23;29.93;;;20.47;;
5127;SDS011;2582;48.770;9.190;2022-12-19T07:16:49;31.00;;;21.67;;
5127;SDS011;2582;48.770;9.190;2022-12-19T07:19:16;36.80;;;25.10;;
5127;SDS011;2582;48.770;9.190;2022-12-19T07:21:42;37.07;;;24.80;;
5127;SDS011;2582;48.770;9.190;2022-12-19T07:24:08;35.43;;;22.30;;
5127;SDS011;2582;48.770;9.190;2022-12-19T07:26:35;34.30;;;23.00;;
5127;SDS011;2582;48.770;9.190;2022-12-19T07:29:01;36.73;;;23.87;;
5127;SDS011;2582;48.770;9.190;2022-12-19T07:31:27;30.40;;;22.20;;
5127;SDS011;2582;48.770;9.190;2022-12-19T07:33:53;30.53;;;23.27;;
5127;SDS011;2582;48.770;9.190;2022-12-19T07:36:18;33.37;;;21.43;;
5127;SDS011;2582;48.770;9.190;2022-12-19T07:38:44;32.77;;;23.30;;
5127;SDS011;2582;48.770;9.190;2022-12-19T07:41:09;31.40;;;21.30;;
5127;SDS011;2582;48.770;9.190;2022-12-19T07:43:35;35.10;;;22.20;;
5127;SDS011;2582;48.770;9.190;2022-12-19T07:46:01;35.33;;;22.80;;
5127;SDS011;2582;48.770;9.190;2022-12-19T07:48:26;27.03;;;20.23;;
5127;SDS011;2582;48.770;9.190;2022-12-19T07:50:54;28.80;;;21.87;;
5127;SDS011;2582;48.770;9.190;2022-12-19T07:53:19;32.00;;;22.57;;
5127;SDS011;2582;48.770;9.190;2022-12-19T07:55:45;30.27;;;21.23;;
5127;SDS011;2582;48.770;9.190;2022-12-19T07:58:14;33.93;;;23.23;;
5127;SDS011;2582;48.770;9.190;2022-12-19T08:00:40;28.80;;;21.27;;
5127;SDS011;2582;48.770;9.190;2022-12-19T08:03:06;31.17;;;22.10;;
5127;SDS011;2582;48.770;9.190;2022-12-19T08:05:31;29.33;;;19.70;;
5127;SDS011;2582;48.770;9.190;2022-12-19T08:07:58;27.77;;;19.87;;
5127;SDS011;2582;48.770;9.190;2022-12-19T08:10:23;28.63;;;19.77;;
5127;SDS011;2582;48.770;9.190;2022-12-19T08:12:49;26.03;;;19.87;;
5127;SDS011;2582;48.770;9.190;2022-12-19T08:15:15;28.57;;;19.40;;
5127;SDS011;2582;48.770;9.190;2022-12-19T08:17:40;28.67;;;20.20;;
5127;SDS011;2582;48.770;9.190;2022-12-19T08:20:06;28.50;;;19.93;;
5127;SDS011;2582;48.770;9.190;2022-12-19T08:22:33;26.60;;;19.53;;
5127;SDS011;2582;48.770;9.190;2022-12-19T08:24:58;30.00;;;19.60;;
5127;SDS011;2582;48.770;9.190;2022-12-19T08:27:24;29.23;;;20.53;;
5127;SDS011;2582;48.770;9.190;2022-12-19T08:29:50;22.43;;;17.20;;
5127;SDS011;2582;48.770;9.190;2022-12-19T08:32:16;25.37;;;18.57;;
5127;SDS011;2582;48.770;9.190;2022-12-19T08:34:42;24.70;;;18.40;;
5127;SDS011;2582;48.770;9.190;2022-12-19T08:37:08;27.73;;;19.07;;
5127;SDS011;2582;48.770;9.190;2022-12-19T08:39:35;21.60;;;17.10;;
5127;SDS011;2582;48.770;9.190;2022-12-19T08:42:00;24.47;;;17.27;;
5127;SDS011;2582;48.770;9.190;2022-12-19T08:44:26;26.83;;;18.30;;
5127;SDS011;2582;48.770;9.190;2022-12-19T08:46:51;24.83;;;17.57;;
5127;SDS011;2582;48.770;9.190;2022-12-19T08:49:17;31.63;;;18.73;;
5127;SDS011;2582;48.770;9.190;2022-12-19T08:51:43;25.90;;;19.20;;
5127;SDS011;2582;48.770;9.190;2022-12-19T08:54:09;21.30;;;16.57;;
5127;SDS011;2582;48.770;9.190;2022-12-19T08:56:36;24.80;;;17.73;;
5127;SDS011;2582;48.770;9.190;2022-12-19T08:59:02;27.93;;;20.60;;
5127;SDS011;2582;48.770;9.190;2022-12-19T09:01:27;22.70;;;17.83;;
5127;SDS011;2582;48.770;9.190;2022-12-19T09:03:53;23.10;;;16.30;;
5127;SDS011;2582;48.770;9.190;2022-12-19T09:06:22;23.73;;;17.73;;
5127;SDS011;2582;48.770;9.190;2022-12-19T09:08:48;24.27;;;16.40;;
5127;SDS011;2582;48.770;9.190;2022-12-19T09:11:14;22.83;;;16.00;;
5127;SDS011;2582;48.770;9.190;2022-12-19T09:13:41;21.00;;;16.20;;
5127;SDS011;2582;48.770;9.190;2022-12-19T09:16:16;25.47;;;17.90;;
5127;SDS011;2582;48.770;9.190;2022-12-19T09:18:46;22.00;;;17.00;;
5127;SDS011;2582;48.770;9.190;2022-12-19T09:21:14;25.87;;;16.30;;
5127;SDS011;2582;48.770;9.190;2022-12-19T09:23:41;22.57;;;16.97;;
5127;SDS011;2582;48.770;9.190;2022-12-19T09:26:08;25.70;;;18.13;;
5127;SDS011;2582;48.770;9.190;2022-12-19T09:28:35;22.53;;;15.87;;
5127;SDS011;2582;48.770;9.190;2022-12-19T09:31:03;25.20;;;18.77;;
5127;SDS011;2582;48.770;9.190;2022-12-19T09:33:32;22.43;;;15.93;;
5127;SDS011;2582;48.770;9.190;2022-12-19T09:35:59;24.43;;;17.10;;
5127;SDS011;2582;48.770;9.190;2022-12-19T09:38:26;21.17;;;15.90;;
5127;SDS011;2582;48.770;9.190;2022-12-19T09:43:29;21.87;;;16.20;;
5127;SDS011;2582;48.770;9.190;2022-12-19T09:46:14;22.67;;;16.33;;
5127;SDS011;2582;48.770;9.190;2022-12-19T09:48:42;23.27;;;16.37;;
5127;SDS011;2582;48.770;9.190;2022-12-19T09:51:13;23.30;;;16.90;;
5127;SDS011;2582;48.770;9.190;2022-12-19T09:56:36;19.63;;;15.00;;
5127;SDS011;2582;48.770;9.190;2022-12-19T09:59:11;17.27;;;14.13;;
5127;SDS011;2582;48.770;9.190;2022-12-19T10:04:51;19.70;;;16.47;;
5127;SDS011;2582;48.770;9.190;2022-12-19T10:07:30;25.80;;;17.60;;
5127;SDS011;2582;48.770;9.190;2022-12-19T10:09:55;25.67;;;18.67;;
5127;SDS011;2582;48.770;9.190;2022-12-19T10:17:51;21.33;;;15.73;;
5127;SDS011;2582;48.770;9.190;2022-12-19T10:20:34;22.67;;;17.37;;
5127;SDS011;2582;48.770;9.190;2022-12-19T10:28:31;20.27;;;16.90;;
5127;SDS011;2582;48.770;9.190;2022-12-19T10:31:11;26.00;;;18.27;;
5127;SDS011;2582;48.770;9.190;2022-12-19T10:33:47;29.40;;;18.10;;
5127;SDS011;2582;48.770;9.190;2022-12-19T10:36:21;25.27;;;18.13;;
5127;SDS011;2582;48.770;9.190;2022-12-19T10:41:30;24.43;;;17.73;;
5127;SDS011;2582;48.770;9.190;2022-12-19T10:43:58;25.23;;;17.80;;
5127;SDS011;2582;48.770;9.190;2022-12-19T10:46:39;26.23;;;16.87;;
5127;SDS011;2582;48.770;9.190;2022-12-19T10:49:20;25.13;;;16.30;;
5127;SDS011;2582;48.770;9.190;2022-12-19T10:54:23;21.13;;;16.70;;
5127;SDS011;2582;48.770;9.190;2022-12-19T10:57:34;20.47;;;16.73;;
5127;SDS011;2582;48.770;9.190;2022-12-19T11:00:00;22.20;;;17.37;;
5127;SDS011;2582;48.770;9.190;2022-12-19T11:05:22;19.97;;;17.00;;
5127;SDS011;2582;48.770;9.190;2022-12-19T11:13:22;24.60;;;17.23;;
5127;SDS011;2582;48.770;9.190;2022-12-19T11:15:52;20.17;;;15.67;;
5127;SDS011;2582;48.770;9.190;2022-12-19T11:18:19;18.90;;;15.43;;
5127;SDS011;2582;48.770;9.190;2022-12-19T11:23:27;17.17;;;14.63;;
5127;SDS011;2582;48.770;9.190;2022-12-19T11:25:58;20.53;;;15.03;;
5127;SDS011;2582;48.770;9.190;2022-12-19T11:28:31;20.40;;;15.73;;
5127;SDS011;2582;48.770;9.190;2022-12-19T11:31:01;23.70;;;17.93;;
5127;SDS011;2582;48.770;9.190;2022-12-19T11:33:35;19.20;;;15.60;;
5127;SDS011;2582;48.770;9.190;2022-12-19T11:36:01;20.90;;;17.43;;
5127;SDS011;2582;48.770;9.190;2022-12-19T11:38:36;20.37;;;16.03;;
5127;SDS011;2582;48.770;9.190;2022-12-19T11:41:17;20.40;;;15.97;;
5127;SDS011;2582;48.770;9.190;2022-12-19T11:43:55;17.87;;;15.70;;
5127;SDS011;2582;48.770;9.190;2022-12-19T11:49:18;19.53;;;16.37;;
5127;SDS011;2582;48.770;9.190;2022-12-19T11:54:29;20.20;;;15.53;;
5127;SDS011;2582;48.770;9.190;2022-12-19T11:57:15;25.90;;;19.37;;
5127;SDS011;2582;48.770;9.190;2022-12-19T11:59:40;23.10;;;19.47;;
5127;SDS011;2582;48.770;9.190;2022-12-19T12:02:24;23.00;;;16.93;;
5127;SDS011;2582;48.770;9.190;2022-12-19T12:05:18;26.90;;;19.10;;
5127;SDS011;2582;48.770;9.190;2022-12-19T12:11:03;17.93;;;14.93;;
5127;SDS011;2582;48.770;9.190;2022-12-19T12:13:45;22.57;;;17.87;;
5127;SDS011;2582;48.770;9.190;2022-12-19T12:16:56;21.47;;;16.50;;
5127;SDS011;2582;48.770;9.190;2022-12-19T12:25:13;19.40;;;16.50;;
5127;SDS011;2582;48.770;9.190;2022-12-19T12:27:51;18.63;;;15.47;;
5127;SDS011;2582;48.770;9.190;2022-12-19T12:30:42;15.87;;;13.67;;
5127;SDS011;2582;48.770;9.190;2022-12-19T12:36:00;15.00;;;13.40;;
5127;SDS011;2582;48.770;9.190;2022-12-19T12:41:08;18.40;;;15.43;;
5127;SDS011;2582;48.770;9.190;2022-12-19T12:44:05;17.57;;;15.10;;
5127;SDS011;2582;48.770;9.190;2022-12-19T12:46:34;16.97;;;12.27;;
5127;SDS011;2582;48.770;9.190;2022-12-19T12:49:05;15.20;;;13.37;;
5127;SDS011;2582;48.770;9.190;2022-12-19T12:51:58;14.47;;;11.97;;
5127;SDS011;2582;48.770;9.190;2022-12-19T12:54:27;14.10;;;12.57;;
5127;SDS011;2582;48.770;9.190;2022-12-19T12:56:59;14.20;;;12.70;;
5127;SDS011;2582;48.770;9.190;2022-12-19T12:59:27;16.33;;;13.60;;
5127;SDS011;2582;48.770;9.190;2022-12-19T13:01:54;14.80;;;12.43;;
5127;SDS011;2582;48.770;9.190;2022-12-19T13:04:30;16.30;;;12.40;;
5127;SDS011;2582;48.770;9.190;2022-12-19T13:07:18;18.60;;;14.83;;
5127;SDS011;2582;48.770;9.190;2022-12-19T13:10:03;15.13;;;13.53;;
5127;SDS011;2582;48.770;9.190;2022-12-19T13:12:57;14.23;;;11.77;;
5127;SDS011;2582;48.770;9.190;2022-12-19T13:15:42;12.60;;;11.00;;
5127;SDS011;2582;48.770;9.190;2022-12-19T13:18:11;14.47;;;12.70;;
5127;SDS011;2582;48.770;9.190;2022-12-19T13:20:58;18.13;;;14.00;;
5127;SDS011;2582;48.770;9.190;2022-12-19T13:25:53;16.53;;;12.70;;
5127;SDS011;2582;48.770;9.190;2022-12-19T13:39:22;16.80;;;15.00;;
5127;SDS011;2582;48.770;9.190;2022-12-19T13:42:06;17.40;;;14.20;;
5127;SDS011;2582;48.770;9.190;2022-12-19T13:44:58;14.63;;;10.83;;
5127;SDS011;2582;48.770;9.190;2022-12-19T13:47:30;10.63;;;9.20;;
5127;SDS011;2582;48.770;9.190;2022-12-19T13:49:59;11.00;;;9.90;;
5127;SDS011;2582;48.770;9.190;2022-12-19T13:52:30;13.67;;;11.00;;
5127;SDS011;2582;48.770;9.190;2022-12-19T13:54:56;9.83;;;8.50;;
5127;SDS011;2582;48.770;9.190;2022-12-19T13:57:26;11.10;;;8.17;;
5127;SDS011;2582;48.770;9.190;2022-12-19T13:59:56;9.20;;;7.47;;
5127;SDS011;2582;48.770;9.190;2022-12-19T14:02:34;12.47;;;11.17;;
5127;SDS011;2582;48.770;9.190;2022-12-19T14:05:04;21.80;;;18.40;;
5127;SDS011;2582;48.770;9.190;2022-12-19T14:07:44;12.23;;;10.77;;
5127;SDS011;2582;48.770;9.190;2022-12-19T14:10:14;18.57;;;11.93;;
5127;SDS011;2582;48.770;9.190;2022-12-19T14:12:46;12.70;;;10.73;;
5127;SDS011;2582;48.770;9.190;2022-12-19T14:15:36;11.93;;;10.73;;
5127;SDS011;2582;48.770;9.190;2022-12-19T14:18:22;15.27;;;11.80;;
5127;SDS011;2582;48.770;9.190;2022-12-19T14:21:12;13.73;;;11.23;;
5127;SDS011;2582;48.770;9.190;2022-12-19T14:26:35;11.27;;;9.03;;
5127;SDS011;2582;48.770;9.190;2022-12-19T14:29:03;16.23;;;11.03;;
5127;SDS011;2582;48.770;9.190;2022-12-19T14:31:37;16.40;;;13.83;;
5127;SDS011;2582;48.770;9.190;2022-12-19T14:34:05;18.43;;;15.50;;
5127;SDS011;2582;48.770;9.190;2022-12-19T14:36:33;18.00;;;13.30;;
5127;SDS011;2582;48.770;9.190;2022-12-19T14:39:02;15.00;;;12.40;;
5127;SDS011;2582;48.770;9.190;2022-12-19T14:44:12;14.53;;;12.00;;
5127;SDS011;2582;48.770;9.190;2022-12-19T14:47:07;13.80;;;12.30;;
5127;SDS011;2582;48.770;9.190;2022-12-19T14:49:36;13.30;;;10.50;;
5127;SDS011;2582;48.770;9.190;2022-12-19T14:52:02;14.87;;;11.43;;
5127;SDS011;2582;48.770;9.190;2022-12-19T14:54:29;14.00;;;12.07;;
5127;SDS011;2582;48.770;9.190;2022-12-19T14:56:55;16.27;;;12.87;;
5127;SDS011;2582;48.770;9.190;2022-12-19T14:59:40;16.93;;;13.67;;
5127;SDS011;2582;48.770;9.190;2022-12-19T15:02:12;20.17;;;16.03;;
5127;SDS011;2582;48.770;9.190;2022-12-19T15:05:01;22.93;;;17.83;;
5127;SDS011;2582;48.770;9.190;2022-12-19T15:07:31;15.97;;;11.43;;
5127;SDS011;2582;48.770;9.190;2022-12-19T15:12:28;13.50;;;11.80;;
5127;SDS011;2582;48.770;9.190;2022-12-19T15:15:16;11.57;;;10.10;;
5127;SDS011;2582;48.770;9.190;2022-12-19T15:17:46;17.50;;;13.13;;
5127;SDS011;2582;48.770;9.190;2022-12-19T15:20:13;12.60;;;11.30;;
5127;SDS011;2582;48.770;9.190;2022-12-19T15:22:39;11.77;;;10.60;;
5127;SDS011;2582;48.770;9.190;2022-12-19T15:25:05;13.27;;;11.77;;
5127;SDS011;2582;48.770;9.190;2022-12-19T15:27:31;15.07;;;12.20;;
5127;SDS011;2582;48.770;9.190;2022-12-19T15:29:56;13.70;;;12.40;;
5127;SDS011;2582;48.770;9.190;2022-12-19T15:32:22;13.70;;;12.30;;
5127;SDS011;2582;48.770;9.190;2022-12-19T15:34:48;10.93;;;9.80;;
5127;SDS011;2582;48.770;9.190;2022-12-19T15:37:14;14.40;;;11.60;;
5127;SDS011;2582;48.770;9.190;2022-12-19T15:39:41;14.57;;;13.17;;
5127;SDS011;2582;48.770;9.190;2022-12-19T15:42:14;17.13;;;13.90;;
5127;SDS011;2582;48.770;9.190;2022-12-19T15:44:45;16.13;;;12.67;;
5127;SDS011;2582;48.770;9.190;2022-12-19T15:47:21;15.83;;;13.07;;
5127;SDS011;2582;48.770;9.190;2022-12-19T15:50:01;16.93;;;12.60;;
5127;SDS011;2582;48.770;9.190;2022-12-19T15:52:57;20.80;;;14.27;;
5127;SDS011;2582;48.770;9.190;2022-12-19T15:55:24;19.70;;;14.70;;
5127;SDS011;2582;48.770;9.190;2022-12-19T15:57:56;16.90;;;12.80;;
5127;SDS011;2582;48.770;9.190;2022-12-19T16:00:25;19.60;;;12.53;;
5127;SDS011;2582;48.770;9.190;2022-12-19T16:02:53;18.57;;;15.30;;
5127;SDS011;2582;48.770;9.190;2022-12-19T16:05:20;22.63;;;16.00;;
5127;SDS011;2582;48.770;9.190;2022-12-19T16:07:47;18.10;;;13.77;;
5127;SDS011;2582;48.770;9.190;2022-12-19T16:10:13;17.13;;;15.10;;
5127;SDS011;2582;48.770;9.190;2022-12-19T16:12:43;13.57;;;11.83;;
5127;SDS011;2582;48.770;9.190;2022-12-19T16:15:24;15.80;;;12.20;;
5127;SDS011;2582;48.770;9.190;2022-12-19T16:17:51;17.37;;;14.13;;
5127;SDS011;2582;48.770;9.190;2022-12-19T16:20:18;20.80;;;15.40;;
5127;SDS011;2582;48.770;9.190;2022-12-19T16:22:46;15.07;;;13.43;;
5127;SDS011;2582;48.770;9.190;2022-12-19T16:25:12;18.33;;;14.30;;
5127;SDS011;2582;48.770;9.190;2022-12-19T16:27:38;19.83;;;14.50;;
5127;SDS011;2582;48.770;9.190;2022-12-19T16:30:23;21.10;;;14.53;;
5127;SDS011;2582;48.770;9.190;2022-12-19T16:32:52;19.90;;;16.03;;
5127;SDS011;2582;48.770;9.190;2022-12-19T16:35:18;21.07;;;16.97;;
5127;SDS011;2582;48.770;9.190;2022-12-19T16:37:46;23.77;;;17.97;;
5127;SDS011;2582;48.770;9.190;2022-12-19T16:40:12;20.57;;;16.07;;
5127;SDS011;2582;48.770;9.190;2022-12-19T16:42:43;23.20;;;19.50;;
5127;SDS011;2582;48.770;9.190;2022-12-19T16:45:21;21.50;;;17.00;;
5127;SDS011;2582;48.770;9.190;2022-12-19T16:47:48;25.10;;;19.00;;
5127;SDS011;2582;48.770;9.190;2022-12-19T16:52:42;24.57;;;17.87;;
5127;SDS011;2582;48.770;9.190;2022-12-19T16:55:08;31.13;;;21.80;;
5127;SDS011;2582;48.770;9.190;2022-12-19T16:57:33;28.57;;;22.23;;
5127;SDS011;2582;48.770;9.190;2022-12-19T16:59:59;24.73;;;21.57;;
5127;SDS011;2582;48.770;9.190;2022-12-19T17:02:42;24.20;;;19.10;;
5127;SDS011;2582;48.770;9.190;2022-12-19T17:05:19;21.20;;;17.77;;
5127;SDS011;2582;48.770;9.190;2022-12-19T17:07:50;22.73;;;18.03;;
5127;SDS011;2582;48.770;9.190;2022-12-19T17:10:17;22.90;;;17.67;;